Time;durP1;ratioP1;P1;durP2;ratioP2;P2;SDS_P1;SDS_P2;PMS_P1;PMS_P2;Temp;Humidity;BMP_temperature;BMP_pressure;BME280_temperature;BME280_humidity;BME280_pressure;Samples;Min_cycle;Max_cycle;Signal;HPM_P1;HPM_P2
2022/09/24 00:04:05;;;;;;;49.10;38.58;;;21.60;50.40;;;;;;4461135;59;21622;-30
2022/09/24 00:09:06;;;;;;;48.60;38.88;;;21.60;50.40;;;;;;4441625;59;21095;-33
2022/09/24 00:14:07;;;;;;;49.08;38.13;;;21.60;50.40;;;;;;4471526;59;21036;-32
2022/09/24 00:19:09;;;;;;;48.08;38.33;;;21.60;50.40;;;;;;4439922;62;21638;-26
2022/09/24 00:29:34;;;;;;;50.08;38.70;;;21.60;50.40;;;;;;4439746;59;21112;-29
2022/09/24 00:34:35;;;;;;;46.50;36.63;;;21.60;50.40;;;;;;4448157;59;21080;-31
2022/09/24 00:39:36;;;;;;;44.45;35.40;;;21.60;50.30;;;;;;4475940;58;21500;-32
2022/09/24 00:44:56;;;;;;;46.37;36.33;;;21.60;50.40;;;;;;4460094;58;21586;-32
2022/09/24 00:50:40;;;;;;;45.38;36.15;;;21.60;50.70;;;;;;4458817;58;21533;-34
2022/09/24 00:55:45;;;;;;;44.72;35.90;;;21.60;50.20;;;;;;4476413;59;21128;-35
2022/09/24 01:00:46;;;;;;;44.00;35.22;;;21.60;50.20;;;;;;4445138;59;21096;-29
2022/09/24 01:05:47;;;;;;;44.15;34.75;;;21.60;50.20;;;;;;4439900;62;21623;-29
2022/09/24 01:14:10;;;;;;;48.22;35.47;;;21.60;50.10;;;;;;4441800;58;21064;-33
2022/09/24 01:21:03;;;;;;;42.88;33.88;;;21.60;50.10;;;;;;4460437;59;21585;-28
2022/09/24 01:28:18;;;;;;;43.13;34.30;;;21.60;50.80;;;;;;4496651;59;21123;-32
2022/09/24 01:33:22;;;;;;;39.23;32.37;;;21.50;49.90;;;;;;4445172;59;21586;-34
2022/09/24 01:38:34;;;;;;;43.03;33.20;;;21.50;49.90;;;;;;4441007;60;21044;-28
2022/09/24 01:43:35;;;;;;;40.03;31.50;;;21.50;49.80;;;;;;4440007;59;21585;-34
2022/09/24 01:48:39;;;;;;;40.15;32.55;;;21.50;49.80;;;;;;4447002;59;21076;-31
2022/09/24 01:53:50;;;;;;;38.92;30.83;;;21.50;49.80;;;;;;4440601;62;21493;-29
2022/09/24 01:59:01;;;;;;;42.00;32.58;;;21.50;49.80;;;;;;4465944;59;21510;-28
2022/09/24 02:04:11;;;;;;;38.72;31.85;;;21.50;49.70;;;;;;4446868;59;21068;-28
2022/09/24 02:09:39;;;;;;;40.88;32.20;;;21.50;49.70;;;;;;4450220;59;21056;-31
2022/09/24 02:14:49;;;;;;;37.17;30.33;;;21.50;49.60;;;;;;4457028;59;21080;-32
2022/09/24 02:19:53;;;;;;;38.70;30.05;;;21.50;49.60;;;;;;4451526;59;21051;-34
2022/09/24 02:24:56;;;;;;;38.30;29.20;;;21.50;49.70;;;;;;4451741;59;21125;-28
2022/09/24 02:29:58;;;;;;;38.10;30.80;;;21.50;49.60;;;;;;4478477;59;21124;-32
2022/09/24 02:35:07;;;;;;;40.22;29.25;;;21.50;49.50;;;;;;4441406;59;21104;-34
2022/09/24 02:40:11;;;;;;;36.42;29.08;;;21.50;49.50;;;;;;4488940;59;21036;-26
2022/09/24 02:45:13;;;;;;;35.65;27.70;;;21.50;49.50;;;;;;4464225;59;21048;-29
2022/09/24 02:50:14;;;;;;;34.10;27.83;;;21.50;49.40;;;;;;4454724;58;21128;-32
2022/09/24 02:55:14;;;;;;;33.63;27.95;;;21.50;49.40;;;;;;4440172;62;21156;-32
2022/09/24 03:00:17;;;;;;;34.55;28.12;;;21.50;49.20;;;;;;4439691;62;21545;-33
2022/09/24 03:05:17;;;;;;;33.22;27.33;;;21.50;49.40;;;;;;4462675;58;21128;-28
2022/09/24 03:10:18;;;;;;;33.38;26.50;;;21.50;49.30;;;;;;4451481;58;21083;-27
2022/09/24 03:15:22;;;;;;;35.58;27.73;;;21.50;49.30;;;;;;4440973;58;21128;-34
2022/09/24 03:20:23;;;;;;;31.60;25.67;;;21.50;49.30;;;;;;4457910;59;21590;-30
2022/09/24 03:25:25;;;;;;;33.50;25.73;;;21.40;49.30;;;;;;4457169;58;21064;-26
2022/09/24 03:35:45;;;;;;;34.33;25.30;;;21.40;49.20;;;;;;4515004;59;22343;-27
2022/09/24 03:40:45;;;;;;;30.92;24.70;;;21.40;49.20;;;;;;4440088;62;21064;-26
2022/09/24 03:45:47;;;;;;;29.87;24.92;;;21.40;49.10;;;;;;4439673;62;21064;-26
2022/09/24 03:50:49;;;;;;;30.88;25.17;;;21.50;49.20;;;;;;4455059;58;22446;-30
2022/09/24 03:55:55;;;;;;;30.45;24.92;;;21.40;49.10;;;;;;4451885;59;21097;-28
2022/09/24 04:00:56;;;;;;;29.50;24.00;;;21.40;49.20;;;;;;4447622;59;21048;-29
2022/09/24 04:05:57;;;;;;;30.30;23.45;;;21.40;49.00;;;;;;4451109;59;21049;-31
2022/09/24 04:10:58;;;;;;;29.58;23.62;;;21.40;49.10;;;;;;4456331;58;21121;-29
2022/09/24 04:16:03;;;;;;;29.98;22.73;;;21.40;49.20;;;;;;4459429;58;21108;-32
2022/09/24 04:21:04;;;;;;;30.62;23.40;;;21.40;49.20;;;;;;4440151;63;21028;-33
2022/09/24 04:26:05;;;;;;;29.70;23.50;;;21.40;49.30;;;;;;4461582;59;21072;-33
2022/09/24 04:31:05;;;;;;;29.35;23.08;;;21.40;49.30;;;;;;4444437;58;21514;-27
2022/09/24 04:36:06;;;;;;;26.12;21.87;;;21.40;49.30;;;;;;4445782;58;21553;-33
2022/09/24 04:41:08;;;;;;;25.88;21.50;;;21.40;49.30;;;;;;4446532;58;21579;-30
2022/09/24 04:46:09;;;;;;;28.48;21.73;;;21.40;49.40;;;;;;4439774;59;21052;-27
2022/09/24 04:51:10;;;;;;;29.20;22.33;;;21.40;49.40;;;;;;4445408;58;21111;-26
2022/09/24 04:56:11;;;;;;;25.58;21.05;;;21.40;49.40;;;;;;4445708;58;21117;-29
2022/09/24 05:01:12;;;;;;;27.40;22.30;;;21.40;49.40;;;;;;4445389;58;21535;-27
2022/09/24 05:06:13;;;;;;;28.95;22.73;;;21.40;49.40;;;;;;4440493;58;21624;-33
2022/09/24 05:11:13;;;;;;;24.77;21.55;;;21.40;49.50;;;;;;4448022;59;21092;-28
2022/09/24 05:16:14;;;;;;;24.95;20.10;;;21.40;49.40;;;;;;4444077;58;21040;-28
2022/09/24 05:21:15;;;;;;;30.12;21.73;;;21.40;49.40;;;;;;4456569;58;21064;-32
2022/09/24 05:31:35;;;;;;;26.00;21.45;;;21.40;49.50;;;;;;4445395;59;21618;-36
2022/09/24 05:36:36;;;;;;;27.35;21.58;;;21.40;49.50;;;;;;4466639;58;21711;-32
2022/09/24 05:41:38;;;;;;;27.95;21.73;;;21.40;49.60;;;;;;4446242;58;21044;-30
2022/09/24 05:46:38;;;;;;;27.20;22.27;;;21.30;49.40;;;;;;4468960;59;21041;-27
2022/09/24 05:51:39;;;;;;;26.70;21.12;;;21.40;49.50;;;;;;4452095;59;21109;-31
2022/09/24 05:56:40;;;;;;;27.35;22.20;;;21.30;49.40;;;;;;4446358;58;21618;-30
2022/09/24 06:01:41;;;;;;;27.48;22.23;;;21.30;49.50;;;;;;4440804;58;21052;-35
2022/09/24 06:06:42;;;;;;;26.50;21.50;;;21.30;49.50;;;;;;4452594;58;21072;-31
2022/09/24 06:11:43;;;;;;;28.65;22.30;;;21.30;49.50;;;;;;4470653;59;21586;-30
2022/09/24 06:16:44;;;;;;;27.95;22.52;;;21.30;49.50;;;;;;4444220;58;21065;-29
2022/09/24 06:21:44;;;;;;;28.95;23.30;;;21.30;49.50;;;;;;4468097;58;21055;-31
2022/09/24 06:26:45;;;;;;;27.73;22.95;;;21.30;49.50;;;;;;4439817;63;21127;-33
2022/09/24 06:31:48;;;;;;;28.67;23.35;;;21.30;49.50;;;;;;4443164;59;21092;-28
2022/09/24 06:36:53;;;;;;;28.25;22.52;;;21.30;49.50;;;;;;4440560;63;21658;-31
2022/09/24 06:41:53;;;;;;;30.45;23.00;;;21.30;49.50;;;;;;4441038;59;21044;-30
2022/09/24 06:46:54;;;;;;;30.75;24.35;;;21.30;50.10;;;;;;4457360;58;21080;-34
2022/09/24 06:51:57;;;;;;;29.65;24.02;;;21.30;49.50;;;;;;4447071;59;21037;-31
2022/09/24 06:56:58;;;;;;;32.22;23.70;;;21.30;49.50;;;;;;4444279;58;21052;-30
2022/09/24 07:01:59;;;;;;;30.37;23.65;;;21.30;49.50;;;;;;4462099;58;21518;-29
2022/09/24 07:12:19;;;;;;;29.58;23.50;;;21.30;49.50;;;;;;4443607;59;21118;-27
2022/09/24 07:17:20;;;;;;;28.55;22.55;;;21.30;49.50;;;;;;4477957;58;21064;-29
2022/09/24 07:22:23;;;;;;;29.55;22.62;;;21.30;49.60;;;;;;4449135;59;21028;-28
2022/09/24 07:27:24;;;;;;;32.72;24.12;;;21.30;49.60;;;;;;4495478;58;21120;-33
2022/09/24 07:32:25;;;;;;;35.13;23.73;;;21.30;49.70;;;;;;4450352;59;21051;-27
2022/09/24 07:37:26;;;;;;;32.03;24.58;;;21.30;49.70;;;;;;4493052;59;21068;-28
2022/09/24 07:42:28;;;;;;;33.90;24.23;;;21.30;49.70;;;;;;4440140;58;21113;-37
2022/09/24 07:47:29;;;;;;;31.73;23.90;;;21.30;49.80;;;;;;4468484;59;21683;-28
2022/09/24 07:52:30;;;;;;;32.83;25.23;;;21.30;49.90;;;;;;4457029;58;21032;-34
2022/09/24 07:57:31;;;;;;;33.95;25.00;;;21.30;50.50;;;;;;4455956;59;21080;-37
2022/09/24 08:02:32;;;;;;;31.95;25.60;;;21.30;49.90;;;;;;4439968;63;21041;-36
2022/09/24 08:07:33;;;;;;;31.92;25.10;;;21.30;49.90;;;;;;4444695;58;21061;-28
2022/09/24 08:12:34;;;;;;;33.22;25.80;;;21.30;49.90;;;;;;4456889;58;21101;-34
2022/09/24 08:17:35;;;;;;;34.55;26.95;;;21.30;49.90;;;;;;4464230;59;21056;-34
2022/09/24 08:22:36;;;;;;;33.75;26.23;;;21.30;49.90;;;;;;4444924;58;21048;-31
2022/09/24 08:27:38;;;;;;;33.63;26.40;;;21.30;49.90;;;;;;4459850;58;21534;-36
2022/09/24 08:32:39;;;;;;;36.05;27.33;;;21.30;50.00;;;;;;4450152;58;21578;-30
2022/09/24 08:37:40;;;;;;;37.33;26.75;;;21.30;50.00;;;;;;4439686;62;21105;-34
2022/09/24 08:42:54;;;;;;;35.28;27.20;;;21.30;50.10;;;;;;4457507;59;21028;-33
2022/09/24 08:48:21;;;;;;;36.35;26.58;;;21.30;50.00;;;;;;4456309;59;21075;-29
2022/09/24 08:53:38;;;;;;;37.17;27.52;;;21.30;50.10;;;;;;4440691;59;21534;-34
2022/09/24 08:58:54;;;;;;;36.20;27.58;;;21.30;50.10;;;;;;4445836;59;21067;-33
2022/09/24 09:04:03;;;;;;;40.47;29.00;;;21.30;50.10;;;;;;4440437;59;21115;-36
2022/09/24 09:09:18;;;;;;;40.33;28.73;;;21.30;50.10;;;;;;4440119;63;21514;-26
2022/09/24 09:14:45;;;;;;;38.88;28.92;;;21.30;50.10;;;;;;4448391;59;21113;-33
2022/09/24 09:19:54;;;;;;;38.58;29.95;;;21.30;50.20;;;;;;4455268;59;21064;-35
2022/09/24 09:24:59;;;;;;;37.40;28.87;;;21.30;50.20;;;;;;4442610;59;21048;-28
2022/09/24 09:30:04;;;;;;;39.72;28.83;;;21.30;50.20;;;;;;4453629;59;21131;-29
2022/09/24 09:35:34;;;;;;;41.37;30.67;;;21.30;50.20;;;;;;4459964;59;21080;-35
2022/09/24 09:40:43;;;;;;;38.67;29.75;;;21.30;50.20;;;;;;4440140;63;21028;-32
2022/09/24 09:46:53;;;;;;;39.28;30.05;;;21.30;50.20;;;;;;4448088;59;21139;-35
2022/09/24 09:51:56;;;;;;;35.03;28.05;;;21.30;50.30;;;;;;4439852;59;21137;-27
2022/09/24 09:56:57;;;;;;;38.60;30.33;;;21.40;50.30;;;;;;4452486;59;21068;-31
2022/09/24 10:01:58;;;;;;;39.20;28.95;;;21.30;50.20;;;;;;4439876;62;21068;-31
2022/09/24 10:07:17;;;;;;;35.97;28.45;;;21.30;50.40;;;;;;4447974;59;22181;-29
2022/09/24 10:12:21;;;;;;;38.25;27.58;;;21.40;50.40;;;;;;4452233;58;21072;-33
2022/09/24 10:17:25;;;;;;;34.97;27.58;;;21.30;50.40;;;;;;4447084;59;21068;-32
2022/09/24 10:22:27;;;;;;;35.80;28.98;;;21.30;50.50;;;;;;4440582;59;21121;-27
2022/09/24 10:27:37;;;;;;;35.08;28.05;;;21.40;50.50;;;;;;4441397;59;21072;-31
2022/09/24 10:32:39;;;;;;;39.70;29.65;;;21.40;50.60;;;;;;4485210;59;21052;-31
2022/09/24 10:37:59;;;;;;;34.10;28.02;;;21.40;50.60;;;;;;4479240;59;21578;-33
2022/09/24 10:43:03;;;;;;;37.13;27.15;;;21.40;50.60;;;;;;4458244;59;21607;-27
2022/09/24 10:48:22;;;;;;;37.58;27.83;;;21.40;50.70;;;;;;4439883;59;21088;-29
2022/09/24 10:56:56;;;;;;;40.08;28.38;;;21.40;50.70;;;;;;4440417;59;21586;-28
2022/09/24 11:04:09;;;;;;;38.58;29.98;;;21.40;50.70;;;;;;4444903;59;21053;-28
2022/09/24 11:10:51;;;;;;;36.08;27.70;;;21.40;50.80;;;;;;4444635;59;21112;-34
2022/09/24 11:16:37;;;;;;;36.15;28.98;;;21.30;50.80;;;;;;4440865;59;21673;-35
2022/09/24 11:22:06;;;;;;;36.53;28.90;;;21.40;50.80;;;;;;4462245;59;21097;-35
2022/09/24 11:34:13;;;;;;;38.00;28.80;;;21.40;50.90;;;;;;4444499;59;21072;-28
2022/09/24 11:39:43;;;;;;;35.10;27.92;;;21.40;51.00;;;;;;4455610;59;21583;-30
2022/09/24 11:45:21;;;;;;;36.30;28.50;;;21.40;51.00;;;;;;4463249;59;21040;-28
2022/09/24 11:51:59;;;;;;;38.28;29.35;;;21.30;51.00;;;;;;4439140;63;21620;-35
2022/09/24 11:57:15;;;;;;;36.65;28.23;;;21.40;51.10;;;;;;4441887;59;21097;-27
2022/09/24 12:02:42;;;;;;;34.78;27.65;;;21.40;51.20;;;;;;4443226;59;21108;-30
2022/09/24 12:07:57;;;;;;;36.80;29.05;;;21.40;51.20;;;;;;4459018;59;21101;-30
2022/09/24 12:13:14;;;;;;;36.65;27.73;;;21.40;51.20;;;;;;4455413;59;21083;-29
2022/09/24 12:18:27;;;;;;;35.97;27.33;;;21.40;51.30;;;;;;4449211;59;21586;-31
2022/09/24 12:23:32;;;;;;;34.67;27.87;;;21.40;51.30;;;;;;4459431;59;21060;-28
2022/09/24 12:34:25;;;;;;;;;;;21.40;51.30;;;;;;4443279;59;21621;-31
2022/09/24 12:39:36;;;;;;;33.88;27.20;;;21.40;51.30;;;;;;4479381;58;20082;-30
2022/09/24 12:44:44;;;;;;;33.63;27.42;;;21.40;51.30;;;;;;4453146;59;21248;-31
2022/09/24 12:50:18;;;;;;;33.38;28.05;;;21.40;51.30;;;;;;4439187;63;21128;-30
2022/09/24 12:55:29;;;;;;;34.00;27.37;;;21.40;51.40;;;;;;4457569;59;21108;-35
2022/09/24 13:00:40;;;;;;;32.45;27.27;;;21.40;51.40;;;;;;4439876;63;21142;-28
2022/09/24 13:05:47;;;;;;;34.47;27.42;;;21.40;51.40;;;;;;4449880;59;21117;-35
2022/09/24 13:11:04;;;;;;;;;;;21.40;51.40;;;;;;4491755;58;21914;-32
2022/09/24 13:16:26;;;;;;;33.72;27.27;;;21.40;51.50;;;;;;4446219;58;20752;-28
2022/09/24 13:21:28;;;;;;;32.97;26.35;;;21.40;51.50;;;;;;4448835;59;21036;-31
2022/09/24 13:26:33;;;;;;;33.47;27.17;;;21.40;51.50;;;;;;4457971;59;21222;-30
2022/09/24 13:31:48;;;;;;;32.75;26.27;;;21.40;51.50;;;;;;4442081;59;21044;-36
2022/09/24 13:37:34;;;;;;;29.65;25.70;;;21.40;51.50;;;;;;4445804;59;21570;-28
2022/09/24 13:43:47;;;;;;;34.05;27.33;;;21.40;51.60;;;;;;4471664;59;21048;-29
2022/09/24 13:49:05;;;;;;;34.30;27.65;;;21.40;51.60;;;;;;4446959;59;21068;-32
2022/09/24 13:54:33;;;;;;;29.98;25.95;;;21.40;51.60;;;;;;4459549;59;21068;-27
2022/09/24 13:59:34;;;;;;;31.27;25.95;;;21.40;51.60;;;;;;4464394;59;21533;-33
2022/09/24 14:04:40;;;;;;;31.08;25.92;;;21.40;52.20;;;;;;4447642;58;21053;-27
2022/09/24 14:09:43;;;;;;;32.63;26.20;;;21.40;51.70;;;;;;4486292;58;21534;-32
2022/09/24 14:14:49;;;;;;;32.22;26.60;;;21.40;51.70;;;;;;4455958;58;21149;-33
2022/09/24 14:19:56;;;;;;;29.40;25.43;;;21.40;51.70;;;;;;4440194;63;21109;-35
2022/09/24 14:25:05;;;;;;;32.50;26.35;;;21.40;51.70;;;;;;4470641;59;21052;-33
2022/09/24 14:30:15;;;;;;;31.45;25.42;;;21.40;51.70;;;;;;4443893;59;21157;-27
2022/09/24 14:35:42;;;;;;;32.10;25.52;;;21.40;51.80;;;;;;4440732;63;21032;-28
2022/09/24 14:40:53;;;;;;;30.83;25.73;;;21.40;51.80;;;;;;4467447;59;21060;-32
2022/09/24 14:46:05;;;;;;;33.38;27.58;;;21.40;51.80;;;;;;4446780;59;22169;-28
2022/09/24 14:51:27;;;;;;;29.95;25.55;;;21.40;52.40;;;;;;4440108;59;21084;-30
2022/09/24 14:56:31;;;;;;;30.17;26.40;;;21.40;51.80;;;;;;4454445;59;21092;-30
2022/09/24 15:01:33;;;;;;;29.83;25.65;;;21.40;51.80;;;;;;4446357;59;21542;-29
2022/09/24 15:06:37;;;;;;;31.08;25.45;;;21.40;51.90;;;;;;4449849;58;21550;-35
2022/09/24 15:11:41;;;;;;;31.12;25.75;;;21.40;51.90;;;;;;4482836;59;21097;-28
2022/09/24 15:16:46;;;;;;;30.65;25.88;;;21.40;51.90;;;;;;4454837;59;21032;-30
2022/09/24 15:21:49;;;;;;;32.13;25.62;;;21.40;51.90;;;;;;4458851;59;21695;-34
2022/09/24 15:27:02;;;;;;;31.25;25.52;;;21.40;51.90;;;;;;4452510;59;21199;-30
2022/09/24 15:32:14;;;;;;;30.05;24.92;;;21.40;51.90;;;;;;4440275;59;21118;-32
2022/09/24 15:37:18;;;;;;;28.65;24.37;;;21.40;51.90;;;;;;4464741;59;22299;-32
2022/09/24 15:42:22;;;;;;;29.33;25.52;;;21.40;51.90;;;;;;4447016;59;21622;-34
2022/09/24 15:47:23;;;;;;;30.35;25.30;;;21.40;51.90;;;;;;4439230;59;21133;-29
2022/09/24 15:52:30;;;;;;;30.62;24.95;;;21.40;52.00;;;;;;4440454;59;21056;-27
2022/09/24 15:57:31;;;;;;;30.50;25.12;;;21.40;52.00;;;;;;4451211;59;21119;-34
2022/09/24 16:02:33;;;;;;;31.08;25.35;;;21.40;52.00;;;;;;4469637;58;21096;-36
2022/09/24 16:07:34;;;;;;;30.40;25.58;;;21.40;52.00;;;;;;4456674;59;21561;-29
2022/09/24 16:12:35;;;;;;;30.98;25.02;;;21.40;52.20;;;;;;4440412;62;21060;-35
2022/09/24 16:17:37;;;;;;;31.00;26.05;;;21.40;52.00;;;;;;4452231;59;21154;-34
2022/09/24 16:22:38;;;;;;;29.70;25.37;;;21.40;52.00;;;;;;4467277;58;21113;-29
2022/09/24 16:27:39;;;;;;;30.12;26.45;;;21.40;52.10;;;;;;4473975;58;21113;-28
2022/09/24 16:32:40;;;;;;;33.95;27.62;;;21.40;52.00;;;;;;4440125;63;21602;-29
2022/09/24 16:37:41;;;;;;;32.75;27.45;;;21.40;52.70;;;;;;4439671;62;21057;-27
2022/09/24 16:42:42;;;;;;;31.08;26.62;;;21.40;52.10;;;;;;4471225;59;21036;-30
2022/09/24 16:47:43;;;;;;;30.80;26.33;;;21.40;52.10;;;;;;4448951;58;21110;-36
2022/09/24 16:52:44;;;;;;;29.90;25.92;;;21.40;52.10;;;;;;4453836;58;21523;-30
2022/09/24 16:57:45;;;;;;;33.97;27.27;;;21.40;52.10;;;;;;4473961;58;21563;-32
2022/09/24 17:02:46;;;;;;;33.58;27.25;;;21.40;52.10;;;;;;4442229;59;21150;-30
2022/09/24 17:07:47;;;;;;;32.25;27.13;;;21.40;52.20;;;;;;4498138;58;21060;-29
2022/09/24 17:12:49;;;;;;;31.83;27.75;;;21.40;52.20;;;;;;4460458;58;21121;-33
2022/09/24 17:17:50;;;;;;;32.13;27.05;;;21.40;52.20;;;;;;4453351;59;21132;-34
2022/09/24 17:22:52;;;;;;;32.53;29.00;;;21.40;52.20;;;;;;4464625;58;21044;-33
2022/09/24 17:27:53;;;;;;;31.25;27.15;;;21.40;52.90;;;;;;4452247;59;21105;-34
2022/09/24 17:32:54;;;;;;;31.92;27.35;;;21.40;52.30;;;;;;4446798;58;21130;-29
2022/09/24 17:37:54;;;;;;;36.28;28.27;;;21.40;52.30;;;;;;4439997;62;21557;-32
2022/09/24 17:42:55;;;;;;;32.58;28.00;;;21.40;52.40;;;;;;4496529;58;21104;-32
2022/09/24 17:47:56;;;;;;;33.70;28.17;;;21.40;52.50;;;;;;4461536;59;21134;-35
2022/09/24 17:52:57;;;;;;;33.17;28.38;;;21.40;52.40;;;;;;4465326;58;21069;-30
2022/09/24 17:57:58;;;;;;;34.08;28.12;;;21.40;52.50;;;;;;4454189;58;21080;-31
2022/09/24 18:02:59;;;;;;;33.78;28.20;;;21.40;52.50;;;;;;4473461;58;21080;-36
2022/09/24 18:08:00;;;;;;;33.28;27.90;;;21.40;52.70;;;;;;4455895;58;21072;-31
2022/09/24 18:13:01;;;;;;;34.55;29.30;;;21.40;52.50;;;;;;4477573;58;22519;-32
2022/09/24 18:18:02;;;;;;;36.05;28.67;;;21.40;52.50;;;;;;4460521;59;21144;-28
2022/09/24 18:23:03;;;;;;;35.13;29.55;;;21.40;52.60;;;;;;4495988;59;21115;-30
2022/09/24 18:28:04;;;;;;;34.65;28.42;;;21.40;52.60;;;;;;4456620;58;22357;-32
2022/09/24 18:33:04;;;;;;;36.45;29.45;;;21.40;52.60;;;;;;4440988;58;21608;-31
2022/09/24 18:38:05;;;;;;;34.45;29.12;;;21.40;52.70;;;;;;4455287;58;21099;-27
2022/09/24 18:43:06;;;;;;;34.65;29.77;;;21.40;52.70;;;;;;4444642;58;21052;-29
2022/09/24 18:48:07;;;;;;;38.15;30.15;;;21.40;52.70;;;;;;4453427;58;21060;-26
2022/09/24 18:53:08;;;;;;;35.70;29.67;;;21.40;52.70;;;;;;4448073;58;21052;-27
2022/09/24 18:58:12;;;;;;;36.95;29.75;;;21.40;52.70;;;;;;4440507;63;21107;-28
2022/09/24 19:03:13;;;;;;;36.75;30.37;;;21.40;53.40;;;;;;4450830;58;21176;-32
2022/09/24 19:08:15;;;;;;;36.17;30.00;;;21.40;52.80;;;;;;4440187;63;21075;-33
2022/09/24 19:13:15;;;;;;;35.97;30.52;;;21.40;52.80;;;;;;4447918;59;21053;-30
2022/09/24 19:18:17;;;;;;;38.08;31.37;;;21.30;52.80;;;;;;4453711;58;21080;-30
2022/09/24 19:23:18;;;;;;;38.45;30.67;;;21.40;52.90;;;;;;4448824;58;21614;-36
2022/09/24 19:28:18;;;;;;;35.58;29.92;;;21.40;52.90;;;;;;4474255;58;21056;-33
2022/09/24 19:33:20;;;;;;;35.65;30.30;;;21.30;52.80;;;;;;4443633;58;21132;-32
2022/09/24 19:38:25;;;;;;;37.75;30.25;;;21.40;52.90;;;;;;4440185;62;21079;-28
2022/09/24 19:43:27;;;;;;;38.47;31.77;;;21.30;52.90;;;;;;4450284;59;21086;-30
2022/09/24 19:48:30;;;;;;;36.50;31.23;;;21.30;52.90;;;;;;4479792;59;21562;-32
2022/09/24 19:53:31;;;;;;;37.55;30.95;;;21.40;53.00;;;;;;4462956;59;21120;-34
2022/09/24 19:58:32;;;;;;;37.97;31.37;;;21.40;53.00;;;;;;4440268;62;21602;-28
2022/09/24 20:03:34;;;;;;;38.00;31.27;;;21.30;52.90;;;;;;4443301;59;21140;-27
2022/09/24 20:08:36;;;;;;;37.22;30.25;;;21.40;53.00;;;;;;4473909;59;21108;-29
2022/09/24 20:13:44;;;;;;;37.63;31.33;;;21.30;53.00;;;;;;4440552;63;21092;-28
2022/09/24 20:18:47;;;;;;;37.95;31.17;;;21.30;53.00;;;;;;4440811;62;21578;-32
2022/09/24 20:23:48;;;;;;;36.88;30.98;;;21.40;53.10;;;;;;4471535;59;21152;-30
2022/09/24 20:28:49;;;;;;;37.42;30.75;;;21.30;53.00;;;;;;4452004;58;21541;-28
2022/09/24 20:33:53;;;;;;;35.13;29.27;;;21.30;53.00;;;;;;4447300;58;21115;-32
2022/09/24 20:38:54;;;;;;;39.30;32.50;;;21.30;53.10;;;;;;4449239;59;21104;-26
2022/09/24 20:43:54;;;;;;;36.45;29.92;;;21.30;53.10;;;;;;4439977;62;21072;-32
2022/09/24 20:48:57;;;;;;;38.22;31.80;;;21.30;53.10;;;;;;4450298;58;21057;-30
2022/09/24 20:53:59;;;;;;;38.90;33.05;;;21.30;53.10;;;;;;4455673;59;21105;-29
2022/09/24 20:59:00;;;;;;;39.33;32.42;;;21.40;53.20;;;;;;4451976;59;21164;-32
2022/09/24 21:04:01;;;;;;;39.30;31.02;;;21.30;53.20;;;;;;4462003;58;21088;-30
2022/09/24 21:09:02;;;;;;;36.95;31.15;;;21.30;53.10;;;;;;4485621;59;21120;-27
2022/09/24 21:14:03;;;;;;;39.90;31.77;;;21.30;53.10;;;;;;4442106;59;21080;-31
2022/09/24 21:19:06;;;;;;;39.08;32.38;;;21.30;53.20;;;;;;4439981;59;21065;-31
2022/09/24 21:24:11;;;;;;;39.08;31.33;;;21.30;53.30;;;;;;4443388;58;21764;-32
2022/09/24 21:29:17;;;;;;;36.25;30.67;;;21.30;53.20;;;;;;4460625;59;21060;-27
2022/09/24 21:34:21;;;;;;;38.95;32.13;;;21.30;53.20;;;;;;4475331;59;21554;-28
2022/09/24 21:39:23;;;;;;;40.25;32.83;;;21.30;53.20;;;;;;4474324;59;21072;-30
2022/09/24 21:44:24;;;;;;;38.42;31.87;;;21.30;53.20;;;;;;4471872;59;21128;-36
2022/09/24 21:49:25;;;;;;;37.67;31.20;;;21.30;53.20;;;;;;4440433;59;21148;-32
2022/09/24 21:54:26;;;;;;;36.45;30.10;;;21.30;53.30;;;;;;4449864;58;21040;-30
2022/09/24 22:04:46;;;;;;;37.08;30.75;;;21.30;53.30;;;;;;4439746;59;21163;-35
2022/09/24 22:09:47;;;;;;;39.00;31.23;;;21.30;53.30;;;;;;4443861;58;22194;-33
2022/09/24 22:14:48;;;;;;;36.95;30.80;;;21.30;53.40;;;;;;4455180;58;21036;-28
2022/09/24 22:19:49;;;;;;;37.38;31.20;;;21.30;53.30;;;;;;4454649;58;21510;-34
2022/09/24 22:24:49;;;;;;;38.25;30.88;;;21.30;53.40;;;;;;4448045;58;21105;-31
2022/09/24 22:29:50;;;;;;;39.63;31.73;;;21.30;53.40;;;;;;4447147;58;21040;-27
2022/09/24 22:40:10;;;;;;;39.10;31.08;;;21.30;53.40;;;;;;4440285;63;21068;-26
2022/09/24 22:45:11;;;;;;;35.35;29.08;;;21.30;53.50;;;;;;4439516;63;21098;-34
2022/09/24 22:50:13;;;;;;;37.35;30.02;;;21.30;54.10;;;;;;4457350;58;21569;-32
2022/09/24 22:55:14;;;;;;;35.67;30.27;;;21.30;53.50;;;;;;4450910;58;21120;-28
2022/09/24 23:00:17;;;;;;;37.38;30.83;;;21.30;53.50;;;;;;4444168;58;21056;-29
2022/09/24 23:05:18;;;;;;;38.53;30.30;;;21.30;53.50;;;;;;4497310;58;21601;-32
2022/09/24 23:10:19;;;;;;;38.08;30.33;;;21.30;53.60;;;;;;4442681;58;21045;-34
2022/09/24 23:15:20;;;;;;;37.42;30.27;;;21.30;53.50;;;;;;4456623;58;21076;-31
2022/09/24 23:20:21;;;;;;;37.50;30.42;;;21.30;53.50;;;;;;4455119;59;21036;-28
2022/09/24 23:25:22;;;;;;;37.75;29.83;;;21.30;53.50;;;;;;4442785;58;22584;-32
2022/09/24 23:30:23;;;;;;;35.38;28.30;;;21.30;53.60;;;;;;4442697;58;21064;-29
2022/09/24 23:35:24;;;;;;;36.15;29.12;;;21.30;53.60;;;;;;4465535;58;21064;-33
2022/09/24 23:40:25;;;;;;;36.00;29.42;;;21.30;53.60;;;;;;4461037;59;21104;-32
2022/09/24 23:45:26;;;;;;;34.75;28.92;;;21.30;53.60;;;;;;4440254;58;21589;-26
2022/09/24 23:50:27;;;;;;;35.10;29.08;;;21.30;53.70;;;;;;4443476;58;21541;-35
2022/09/24 23:55:28;;;;;;;34.90;29.58;;;21.30;53.60;;;;;;4471212;58;21052;-32
